Main page
METAR-TAF:

METAR-TAF

Airports :

Srinagar International Airport

Srinagar, India

latitude: 33-59-14N, longitude: 074-46-27E, elevation: 1655 m

METAR: missing

Time: 15:47 (10:17 UTC)

Forecast

The report was made 6 hours and 47 minutes ago, at 03:30 UTC
Forecast valid from 24 at 06 UTC to 24 at 18 UTC
Wind 5 kt from the South/Southeast
Visibility: 6000 m
Scattered clouds at a height of 2500 ft
Scattered clouds at a height of 9000 ft
Temporary
from 24 at 12 UTC to 24 at 15 UTC
Visibility: 4000 m
Few clouds at a height of 3000 ft, Cumulonimbus.
smoke

TAF: VISR 240330Z 2406/2418 16005KT 6000 SCT025 SCT090 TEMPO 2412/2415 4000 FU FEW030CB

Weather observations and forecasts of more than 4000 airports (METAR and TAF reports).

The available stations are represented by yellow and red dots on the map.

Hover mouse over dot to see the name of the station.

Then click to see weather observations and forecasts.

To change the map : click on the green buttons with a black cross to zoom in, on the green button with a dash to zoom out, or on the green arrows for adjacent maps.


METAR-TAF: